Painted Post, New York
Current Conditions -  °F | °C
As of 9:53 PM on Thursday 18 Dec 2014 (Local Time) from KELM Reporting Station
Overcast Overcast  
Wind Chill: 33°   Ceiling: 2400
Heat Index: 33°   Visibility: 10mi
Dew Point: 27°   Wind: 3mph
Humidity: 78%   Direction: 280°W
Pressure: 30"   Gusts: NA
Location:  42.16°N, 77.09°W
Report Text: KELM 190253Z 28003KT 10SM BKN024 OVC030 01/M03 A3000 RMK AO2 SLP169 T00061028 58009
Loading
Personal Weather Stations






























Interactive Weather Map New forecast layout! Learn more

10-Day Weather Forecast

Advertisements
Track Severe Weather on mobile